createdAt,value
2023-03-24T05:01:51.929Z,6.91
2023-03-24T05:13:06.953Z,6.91
2023-03-24T05:24:15.913Z,6.91
2023-03-24T05:35:22.373Z,7.00
2023-03-24T05:46:35.158Z,7.40
2023-03-24T05:57:44.434Z,8.08
2023-03-24T06:08:47.665Z,8.67
2023-03-24T06:19:48.556Z,9.25
2023-03-24T06:30:50.945Z,9.74
2023-03-24T06:41:50.096Z,10.23
2023-03-24T06:52:40.649Z,10.92
2023-03-24T07:03:43.460Z,11.31
2023-03-24T07:14:46.469Z,12.19
2023-03-24T07:25:48.395Z,13.17
2023-03-24T07:36:51.348Z,13.56
2023-03-24T07:47:50.973Z,13.65
2023-03-24T07:58:50.668Z,14.44
2023-03-24T08:09:47.458Z,14.73
2023-03-24T08:20:34.068Z,15.42
2023-03-24T08:31:34.171Z,16.00
2023-03-24T08:42:30.303Z,16.20
2023-03-24T08:53:29.487Z,16.20
2023-03-24T09:04:25.230Z,16.69
2023-03-24T09:15:27.408Z,17.57
2023-03-24T09:26:29.512Z,18.64
2023-03-24T09:37:31.946Z,19.33
2023-03-24T09:48:32.798Z,19.04
2023-03-24T09:59:32.592Z,19.13
2023-03-24T10:10:20.630Z,19.33
2023-03-24T10:21:21.281Z,19.72
2023-03-24T10:32:22.444Z,20.31
2023-03-24T10:43:19.766Z,20.70
2023-03-24T10:54:20.330Z,21.38
2023-03-24T11:05:17.606Z,22.07
2023-03-24T11:16:17.811Z,23.14
2023-03-24T11:27:17.213Z,22.46
2023-03-24T11:38:15.543Z,21.77
2023-03-24T11:49:15.940Z,20.99
2023-03-24T12:00:16.704Z,20.99
2023-03-24T12:11:19.252Z,20.70
2023-03-24T12:22:15.563Z,20.89
2023-03-24T12:33:16.602Z,20.79
2023-03-24T12:44:16.160Z,20.70
2023-03-24T12:55:15.312Z,20.70
2023-03-24T13:06:17.479Z,20.31
2023-03-24T13:17:15.717Z,20.60
2023-03-24T13:28:15.380Z,20.70
2023-03-24T13:39:15.365Z,20.70
2023-03-24T13:50:15.431Z,20.89
2023-03-24T14:01:12.947Z,20.79
2023-03-24T14:12:08.607Z,20.89
2023-03-24T14:22:57.298Z,20.89
2023-03-24T14:33:42.614Z,21.19
2023-03-24T14:44:28.339Z,20.99
2023-03-24T14:55:01.278Z,20.60
2023-03-24T15:05:35.233Z,20.21
2023-03-24T15:16:10.081Z,20.21
2023-03-24T15:26:47.265Z,24.80
2023-03-24T15:37:42.202Z,22.07
2023-03-24T15:48:12.755Z,20.11
2023-03-24T15:59:05.304Z,19.62
2023-03-24T16:09:38.742Z,19.43
2023-03-24T16:20:31.154Z,19.04
2023-03-24T16:31:17.965Z,18.16
2023-03-24T16:42:13.447Z,17.76
2023-03-24T16:53:02.094Z,16.98
2023-03-24T17:03:53.195Z,16.69
2023-03-24T17:14:32.724Z,16.39
2023-03-24T17:25:14.879Z,16.00
2023-03-24T17:35:50.888Z,16.20
2023-03-24T17:46:48.695Z,16.78
2023-03-24T17:57:24.113Z,15.90
2023-03-24T18:08:00.106Z,15.12
2023-03-24T18:18:50.470Z,15.22
2023-03-24T18:29:44.633Z,14.73
2023-03-24T18:40:37.036Z,14.83
2023-03-24T18:51:34.230Z,14.83
2023-03-24T19:02:29.613Z,14.54
2023-03-24T19:13:05.225Z,14.24
2023-03-24T19:23:47.707Z,14.05
2023-03-24T19:34:23.492Z,13.75
2023-03-24T19:45:02.751Z,13.56
2023-03-24T19:55:37.789Z,13.36
2023-03-24T20:06:28.727Z,13.26
2023-03-24T20:17:05.067Z,13.26
2023-03-24T20:27:50.005Z,13.27
2023-03-24T20:38:39.547Z,13.26
2023-03-24T20:49:37.349Z,13.17
2023-03-24T21:00:29.773Z,13.17
2023-03-24T21:11:29.122Z,13.17
2023-03-24T21:22:28.700Z,13.17
2023-03-24T21:33:28.171Z,12.97
2023-03-24T21:44:26.039Z,12.38
2023-03-24T21:55:02.210Z,12.29
2023-03-24T22:05:39.331Z,12.19
2023-03-24T22:16:37.550Z,11.60
2023-03-24T22:27:30.759Z,11.41
2023-03-24T22:38:08.224Z,11.11
2023-03-24T22:48:44.720Z,10.92
2023-03-24T22:59:22.419Z,10.72
2023-03-24T23:10:15.565Z,10.72
2023-03-24T23:20:54.359Z,10.53
2023-03-24T23:31:31.602Z,10.33
2023-03-24T23:42:24.271Z,10.13
2023-03-24T23:53:22.715Z,10.23
